Time,TemperatureF,DewpointF,PressureIn,WindDirection,WindDirectionDegrees,WindSpeedMPH,WindSpeedGustMPH,Humidity,HourlyPrecipIn,Conditions,Clouds,dailyrainin,SoftwareType,DateUTC
2013-07-09 00:01:00,56.2,53.0,29.99,SSE,161,0.0,-999.0,90,-99.99,,,0.00,weatherlink.com 1.10,2013-07-09 07:01:00,
2013-07-09 00:16:00,56.0,54.0,29.99,SSE,161,0.0,-999.0,91,-99.99,,,0.00,weatherlink.com 1.10,2013-07-09 07:16:00,
2013-07-09 00:31:00,55.7,53.0,29.99,SSE,161,0.0,-999.0,91,-99.99,,,0.00,weatherlink.com 1.10,2013-07-09 07:31:00,
2013-07-09 00:46:00,55.7,54.0,29.99,SSE,161,0.0,-999.0,92,-99.99,,,0.00,weatherlink.com 1.10,2013-07-09 07:46:00,
2013-07-09 01:01:00,55.6,53.0,29.99,SSE,161,0.0,-999.0,92,-99.99,,,0.00,weatherlink.com 1.10,2013-07-09 08:01:00,
2013-07-09 01:16:00,55.6,53.0,29.99,SSE,165,0.0,-999.0,92,-99.99,,,0.00,weatherlink.com 1.10,2013-07-09 08:16:00,
2013-07-09 01:31:00,55.3,53.0,29.99,SSE,165,0.0,-999.0,92,-99.99,,,0.00,weatherlink.com 1.10,2013-07-09 08:31:00,
2013-07-09 01:46:00,55.1,53.0,29.99,SSE,165,0.0,-999.0,92,-99.99,,,0.00,weatherlink.com 1.10,2013-07-09 08:46:00,
2013-07-09 02:01:00,55.0,53.0,29.99,SSE,165,0.0,-999.0,93,-99.99,,,0.00,weatherlink.com 1.10,2013-07-09 09:01:00,
2013-07-09 02:16:00,54.8,53.0,29.99,SSE,165,0.0,-999.0,93,-99.99,,,0.00,weatherlink.com 1.10,2013-07-09 09:16:00,
2013-07-09 02:31:00,55.0,53.0,29.99,SSE,165,0.0,-999.0,93,-99.99,,,0.00,weatherlink.com 1.10,2013-07-09 09:31:00,
2013-07-09 02:46:00,55.0,53.0,29.99,SSE,165,0.0,-999.0,94,-99.99,,,0.00,weatherlink.com 1.10,2013-07-09 09:46:00,
2013-07-09 03:01:00,55.0,53.0,29.99,SSE,165,0.0,-999.0,94,-99.99,,,0.00,weatherlink.com 1.10,2013-07-09 10:01:00,
2013-07-09 03:16:00,55.0,53.0,29.98,SSE,165,0.0,-999.0,94,-99.99,,,0.00,weatherlink.com 1.10,2013-07-09 10:16:00,
2013-07-09 03:31:00,54.8,53.0,29.98,SSE,165,0.0,-999.0,94,-99.99,,,0.00,weatherlink.com 1.10,2013-07-09 10:31:00,
2013-07-09 03:46:00,54.8,53.0,29.99,SSE,165,0.0,-999.0,94,-99.99,,,0.00,weatherlink.com 1.10,2013-07-09 10:46:00,
2013-07-09 04:01:00,54.8,53.0,29.99,SSE,165,0.0,-999.0,94,-99.99,,,0.00,weatherlink.com 1.10,2013-07-09 11:01:00,
2013-07-09 04:16:00,55.0,54.0,29.99,SSE,165,0.0,-999.0,95,-99.99,,,0.00,weatherlink.com 1.10,2013-07-09 11:16:00,
2013-07-09 04:31:00,55.1,54.0,29.99,SSE,165,0.0,-999.0,95,-99.99,,,0.00,weatherlink.com 1.10,2013-07-09 11:31:00,
2013-07-09 04:46:00,55.0,54.0,29.99,SSE,165,0.0,-999.0,95,-99.99,,,0.00,weatherlink.com 1.10,2013-07-09 11:46:00,
2013-07-09 05:01:00,55.0,54.0,30.00,SSE,165,0.0,-999.0,95,-99.99,,,0.00,weatherlink.com 1.10,2013-07-09 12:01:00,
2013-07-09 05:16:00,54.8,53.0,30.00,SSE,165,0.0,-999.0,95,-99.99,,,0.00,weatherlink.com 1.10,2013-07-09 12:16:00,
2013-07-09 05:31:00,54.8,53.0,30.00,SSE,165,0.0,-999.0,95,-99.99,,,0.00,weatherlink.com 1.10,2013-07-09 12:31:00,
2013-07-09 05:46:00,54.7,53.0,30.00,SSE,165,0.0,-999.0,95,-99.99,,,0.00,weatherlink.com 1.10,2013-07-09 12:46:00,
2013-07-09 06:01:00,54.7,53.0,30.01,SSE,165,0.0,-999.0,95,-99.99,,,0.00,weatherlink.com 1.10,2013-07-09 13:01:00,
2013-07-09 06:16:00,54.7,53.0,30.01,SSE,166,0.0,-999.0,95,-99.99,,,0.00,weatherlink.com 1.10,2013-07-09 13:16:00,
2013-07-09 06:31:00,54.7,53.0,30.01,SSE,166,0.0,-999.0,95,-99.99,,,0.00,weatherlink.com 1.10,2013-07-09 13:31:00,
2013-07-09 06:46:00,54.7,53.0,30.01,SSE,166,0.0,-999.0,95,-99.99,,,0.00,weatherlink.com 1.10,2013-07-09 13:46:00,
2013-07-09 07:01:00,54.5,53.0,30.02,SSE,166,0.0,-999.0,95,-99.99,,,0.00,weatherlink.com 1.10,2013-07-09 14:01:00,
2013-07-09 07:16:00,54.7,53.0,30.02,SSE,166,0.0,-999.0,95,-99.99,,,0.00,weatherlink.com 1.10,2013-07-09 14:16:00,
2013-07-09 07:31:00,54.7,53.0,30.02,SSE,166,0.0,-999.0,95,-99.99,,,0.00,weatherlink.com 1.10,2013-07-09 14:31:00,
2013-07-09 07:46:00,54.8,53.0,30.02,SSE,166,0.0,-999.0,95,-99.99,,,0.00,weatherlink.com 1.10,2013-07-09 14:46:00,
2013-07-09 08:01:00,55.1,54.0,30.02,SSE,166,0.0,-999.0,95,-99.99,,,0.00,weatherlink.com 1.10,2013-07-09 15:01:00,
2013-07-09 08:16:00,55.7,54.0,30.02,SSE,166,0.0,-999.0,95,-99.99,,,0.00,weatherlink.com 1.10,2013-07-09 15:16:00,
2013-07-09 08:31:00,56.0,55.0,30.02,SSE,166,0.0,-999.0,95,-99.99,,,0.00,weatherlink.com 1.10,2013-07-09 15:31:00,
2013-07-09 08:46:00,56.6,55.0,30.03,SSE,167,0.0,-999.0,94,-99.99,,,0.00,weatherlink.com 1.10,2013-07-09 15:46:00,
2013-07-09 09:01:00,57.0,55.0,30.03,SSE,167,0.0,-999.0,93,-99.99,,,0.00,weatherlink.com 1.10,2013-07-09 16:01:00,
2013-07-09 09:16:00,57.8,56.0,30.03,South,182,0.0,-999.0,92,-99.99,,,0.00,weatherlink.com 1.10,2013-07-09 16:16:00,
2013-07-09 09:31:00,59.8,56.0,30.02,South,182,0.0,-999.0,87,-99.99,,,0.00,weatherlink.com 1.10,2013-07-09 16:31:00,
2013-07-09 09:46:00,61.6,56.0,30.02,South,182,0.0,-999.0,81,-99.99,,,0.00,weatherlink.com 1.10,2013-07-09 16:46:00,
2013-07-09 10:01:00,63.9,56.0,30.02,South,186,0.0,-999.0,76,-99.99,,,0.00,weatherlink.com 1.10,2013-07-09 17:01:00,
2013-07-09 10:16:00,65.0,55.0,30.02,WSW,254,1.0,-999.0,71,-99.99,,,0.00,weatherlink.com 1.10,2013-07-09 17:16:00,
2013-07-09 10:31:00,66.1,56.0,30.02,West,273,0.0,-999.0,71,-99.99,,,0.00,weatherlink.com 1.10,2013-07-09 17:31:00,
2013-07-09 10:46:00,66.6,56.0,30.02,WSW,249,0.0,-999.0,68,-99.99,,,0.00,weatherlink.com 1.10,2013-07-09 17:46:00,
2013-07-09 11:01:00,66.4,55.0,30.02,SSW,201,0.0,-999.0,68,-99.99,,,0.00,weatherlink.com 1.10,2013-07-09 18:01:00,
2013-07-09 11:17:00,68.4,57.0,30.02,South,181,0.0,-999.0,66,-99.99,,,0.00,weatherlink.com 1.10,2013-07-09 18:17:00,
2013-07-09 11:32:00,69.3,56.0,30.02,WNW,294,0.0,-999.0,63,-99.99,,,0.00,weatherlink.com 1.10,2013-07-09 18:32:00,
2013-07-09 11:46:00,69.6,56.0,30.02,SSW,204,1.0,-999.0,63,-99.99,,,0.00,weatherlink.com 1.10,2013-07-09 18:46:00,
2013-07-09 12:01:00,70.6,57.0,30.02,South,190,0.0,-999.0,62,-99.99,,,0.00,weatherlink.com 1.10,2013-07-09 19:01:00,
2013-07-09 12:17:00,70.8,57.0,30.02,West,265,0.0,-999.0,61,-99.99,,,0.00,weatherlink.com 1.10,2013-07-09 19:17:00,
2013-07-09 12:32:00,71.1,56.0,30.02,SW,215,1.0,-999.0,60,-99.99,,,0.00,weatherlink.com 1.10,2013-07-09 19:32:00,
2013-07-09 12:47:00,72.3,57.0,30.02,WSW,250,1.0,-999.0,58,-99.99,,,0.00,weatherlink.com 1.10,2013-07-09 19:47:00,
2013-07-09 13:02:00,72.3,56.0,30.02,SSW,197,0.0,-999.0,57,-99.99,,,0.00,weatherlink.com 1.10,2013-07-09 20:02:00,
2013-07-09 13:17:00,73.0,56.0,30.01,WSW,256,3.0,-999.0,55,-99.99,,,0.00,weatherlink.com 1.10,2013-07-09 20:17:00,
2013-07-09 13:32:00,71.3,55.0,30.01,West,259,2.0,-999.0,57,-99.99,,,0.00,weatherlink.com 1.10,2013-07-09 20:32:00,
2013-07-09 13:47:00,70.8,57.0,30.01,WSW,237,0.0,-999.0,61,-99.99,,,0.00,weatherlink.com 1.10,2013-07-09 20:47:00,
2013-07-09 14:17:00,71.3,56.0,30.01,South,188,0.0,-999.0,58,-99.99,,,0.00,weatherlink.com 1.10,2013-07-09 21:17:00,
2013-07-09 14:32:00,72.7,55.0,30.01,WSW,238,0.0,-999.0,54,-99.99,,,0.00,weatherlink.com 1.10,2013-07-09 21:32:00,
2013-07-09 14:48:00,73.7,55.0,30.01,South,182,0.0,-999.0,53,-99.99,,,0.00,weatherlink.com 1.10,2013-07-09 21:48:00,
2013-07-09 15:03:00,73.0,55.0,30.01,South,176,0.0,-999.0,53,-99.99,,,0.00,weatherlink.com 1.10,2013-07-09 22:03:00,
2013-07-09 15:18:00,72.5,55.0,30.00,West,261,1.0,-999.0,54,-99.99,,,0.00,weatherlink.com 1.10,2013-07-09 22:18:00,
2013-07-09 15:34:00,70.3,55.0,30.00,SSW,200,1.0,-999.0,59,-99.99,,,0.00,weatherlink.com 1.10,2013-07-09 22:34:00,
2013-07-09 15:47:00,70.3,55.0,29.99,SW,222,0.0,-999.0,58,-99.99,,,0.00,weatherlink.com 1.10,2013-07-09 22:47:00,
2013-07-09 16:02:00,70.8,56.0,29.99,SW,229,0.0,-999.0,59,-99.99,,,0.00,weatherlink.com 1.10,2013-07-09 23:02:00,
2013-07-09 16:18:00,72.1,55.0,29.99,SE,146,0.0,-999.0,56,-99.99,,,0.00,weatherlink.com 1.10,2013-07-09 23:18:00,
2013-07-09 16:34:00,72.7,55.0,29.98,SW,218,0.0,-999.0,55,-99.99,,,0.00,weatherlink.com 1.10,2013-07-09 23:34:00,
2013-07-09 16:48:00,72.7,55.0,29.98,SSW,210,0.0,-999.0,55,-99.99,,,0.00,weatherlink.com 1.10,2013-07-09 23:48:00,
2013-07-09 17:04:00,72.8,55.0,29.98,NE,51,0.0,-999.0,54,-99.99,,,0.00,weatherlink.com 1.10,2013-07-10 00:04:00,
2013-07-09 17:18:00,72.3,55.0,29.97,South,186,0.0,-999.0,54,-99.99,,,0.00,weatherlink.com 1.10,2013-07-10 00:18:00,
2013-07-09 17:34:00,72.3,55.0,29.96,WSW,244,1.0,-999.0,54,-99.99,,,0.00,weatherlink.com 1.10,2013-07-10 00:34:00,
2013-07-09 17:48:00,71.3,56.0,29.96,SW,219,0.0,-999.0,58,-99.99,,,0.00,weatherlink.com 1.10,2013-07-10 00:48:00,
2013-07-09 18:04:00,69.9,56.0,29.96,SW,221,0.0,-999.0,61,-99.99,,,0.00,weatherlink.com 1.10,2013-07-10 01:04:00,
2013-07-09 18:18:00,68.9,55.0,29.96,ENE,59,0.0,-999.0,62,-99.99,,,0.00,weatherlink.com 1.10,2013-07-10 01:18:00,
2013-07-09 18:34:00,68.3,55.0,29.96,WSW,257,0.0,-999.0,63,-99.99,,,0.00,weatherlink.com 1.10,2013-07-10 01:34:00,
2013-07-09 18:48:00,67.4,55.0,29.95,SW,221,0.0,-999.0,64,-99.99,,,0.00,weatherlink.com 1.10,2013-07-10 01:48:00,
2013-07-09 19:04:00,66.9,55.0,29.96,SSW,195,0.0,-999.0,66,-99.99,,,0.00,weatherlink.com 1.10,2013-07-10 02:04:00,
2013-07-09 19:19:00,65.6,55.0,29.96,SSW,210,0.0,-999.0,68,-99.99,,,0.00,weatherlink.com 1.10,2013-07-10 02:19:00,
2013-07-09 19:34:00,63.9,55.0,29.96,WSW,254,0.0,-999.0,72,-99.99,,,0.00,weatherlink.com 1.10,2013-07-10 02:34:00,
2013-07-09 19:48:00,62.3,55.0,29.96,West,274,2.0,-999.0,76,-99.99,,,0.00,weatherlink.com 1.10,2013-07-10 02:48:00,
2013-07-09 20:04:00,60.7,55.0,29.96,WSW,244,0.0,-999.0,80,-99.99,,,0.00,weatherlink.com 1.10,2013-07-10 03:04:00,
2013-07-09 20:19:00,59.8,54.0,29.96,East,98,0.0,-999.0,82,-99.99,,,0.00,weatherlink.com 1.10,2013-07-10 03:19:00,
2013-07-09 20:34:00,59.3,55.0,29.96,ESE,103,0.0,-999.0,85,-99.99,,,0.00,weatherlink.com 1.10,2013-07-10 03:34:00,
2013-07-09 20:49:00,59.0,55.0,29.96,SE,126,0.0,-999.0,85,-99.99,,,0.00,weatherlink.com 1.10,2013-07-10 03:49:00,
2013-07-09 21:04:00,58.3,55.0,29.96,South,174,0.0,-999.0,87,-99.99,,,0.00,weatherlink.com 1.10,2013-07-10 04:04:00,
2013-07-09 21:19:00,58.1,54.0,29.97,South,174,0.0,-999.0,87,-99.99,,,0.00,weatherlink.com 1.10,2013-07-10 04:19:00,
2013-07-09 21:34:00,57.8,54.0,29.98,South,174,0.0,-999.0,88,-99.99,,,0.00,weatherlink.com 1.10,2013-07-10 04:34:00,
2013-07-09 21:49:00,57.8,55.0,29.98,South,174,0.0,-999.0,89,-99.99,,,0.00,weatherlink.com 1.10,2013-07-10 04:49:00,
2013-07-09 22:04:00,57.5,54.0,29.99,ESE,120,0.0,-999.0,89,-99.99,,,0.00,weatherlink.com 1.10,2013-07-10 05:04:00,
2013-07-09 22:19:00,57.0,54.0,29.99,SW,236,0.0,-999.0,89,-99.99,,,0.00,weatherlink.com 1.10,2013-07-10 05:19:00,
2013-07-09 22:34:00,56.9,54.0,30.00,SW,236,0.0,-999.0,90,-99.99,,,0.00,weatherlink.com 1.10,2013-07-10 05:34:00,
2013-07-09 22:49:00,56.6,54.0,30.00,SW,236,0.0,-999.0,90,-99.99,,,0.00,weatherlink.com 1.10,2013-07-10 05:49:00,
2013-07-09 23:04:00,56.6,54.0,30.00,SW,236,0.0,-999.0,91,-99.99,,,0.00,weatherlink.com 1.10,2013-07-10 06:04:00,
2013-07-09 23:19:00,56.6,54.0,30.00,SW,236,0.0,-999.0,90,-99.99,,,0.00,weatherlink.com 1.10,2013-07-10 06:19:00,
2013-07-09 23:34:00,56.5,54.0,30.00,WSW,246,0.0,-999.0,90,-99.99,,,0.00,weatherlink.com 1.10,2013-07-10 06:34:00,
2013-07-09 23:49:00,56.2,53.0,30.00,WSW,246,0.0,-999.0,90,-99.99,,,0.00,weatherlink.com 1.10,2013-07-10 06:49:00,